sensor_id;sensor_type;location;lat;lon;timestamp;temperature;humidity
5675;DHT22;2860;54.284;10.158;2024-02-26T00:00:15;0.30;99.90
5675;DHT22;2860;54.284;10.158;2024-02-26T00:02:41;0.30;99.90
5675;DHT22;2860;54.284;10.158;2024-02-26T00:05:07;0.20;99.90
5675;DHT22;2860;54.284;10.158;2024-02-26T00:07:33;0.30;99.90
5675;DHT22;2860;54.284;10.158;2024-02-26T00:09:59;0.20;99.90
5675;DHT22;2860;54.284;10.158;2024-02-26T00:12:24;0.20;99.90
5675;DHT22;2860;54.284;10.158;2024-02-26T00:14:50;0.20;99.90
5675;DHT22;2860;54.284;10.158;2024-02-26T00:17:18;0.10;99.90
5675;DHT22;2860;54.284;10.158;2024-02-26T00:19:43;0.10;99.90
5675;DHT22;2860;54.284;10.158;2024-02-26T00:22:09;0.10;99.90
5675;DHT22;2860;54.284;10.158;2024-02-26T00:24:34;0.10;99.90
5675;DHT22;2860;54.284;10.158;2024-02-26T00:27:00;0.10;99.90
5675;DHT22;2860;54.284;10.158;2024-02-26T00:29:25;0.10;99.90
5675;DHT22;2860;54.284;10.158;2024-02-26T00:31:51;0.00;99.90
5675;DHT22;2860;54.284;10.158;2024-02-26T00:34:17;0.00;99.90
5675;DHT22;2860;54.284;10.158;2024-02-26T00:36:42;0.00;99.90
5675;DHT22;2860;54.284;10.158;2024-02-26T00:39:08;0.00;99.90
5675;DHT22;2860;54.284;10.158;2024-02-26T00:41:38;-0.10;99.90
5675;DHT22;2860;54.284;10.158;2024-02-26T00:44:04;-0.10;99.90
5675;DHT22;2860;54.284;10.158;2024-02-26T00:46:29;-0.20;99.90
5675;DHT22;2860;54.284;10.158;2024-02-26T00:48:55;-0.30;99.90
5675;DHT22;2860;54.284;10.158;2024-02-26T00:51:20;-0.30;99.90
5675;DHT22;2860;54.284;10.158;2024-02-26T00:53:46;-0.30;99.90
5675;DHT22;2860;54.284;10.158;2024-02-26T00:56:11;-0.30;99.90
5675;DHT22;2860;54.284;10.158;2024-02-26T00:58:36;-0.30;99.90
5675;DHT22;2860;54.284;10.158;2024-02-26T01:01:02;-0.20;99.90
5675;DHT22;2860;54.284;10.158;2024-02-26T01:03:28;-0.30;99.90
5675;DHT22;2860;54.284;10.158;2024-02-26T01:05:54;-0.30;99.90
5675;DHT22;2860;54.284;10.158;2024-02-26T01:08:19;-0.30;99.90
5675;DHT22;2860;54.284;10.158;2024-02-26T01:10:45;-0.20;99.90
5675;DHT22;2860;54.284;10.158;2024-02-26T01:13:11;-0.20;99.90
5675;DHT22;2860;54.284;10.158;2024-02-26T01:15:37;-0.20;99.90
5675;DHT22;2860;54.284;10.158;2024-02-26T01:18:02;-0.20;99.90
5675;DHT22;2860;54.284;10.158;2024-02-26T01:20:28;-0.20;99.90
5675;DHT22;2860;54.284;10.158;2024-02-26T01:22:53;-0.20;99.90
5675;DHT22;2860;54.284;10.158;2024-02-26T01:25:19;-0.20;99.90
5675;DHT22;2860;54.284;10.158;2024-02-26T01:27:44;-0.20;99.90
5675;DHT22;2860;54.284;10.158;2024-02-26T01:30:11;-0.20;99.90
5675;DHT22;2860;54.284;10.158;2024-02-26T01:32:36;-0.20;99.90
5675;DHT22;2860;54.284;10.158;2024-02-26T01:35:02;-0.30;99.90
5675;DHT22;2860;54.284;10.158;2024-02-26T01:37:36;-0.40;99.90
5675;DHT22;2860;54.284;10.158;2024-02-26T01:40:02;-0.40;99.90
5675;DHT22;2860;54.284;10.158;2024-02-26T01:42:29;-0.40;99.90
5675;DHT22;2860;54.284;10.158;2024-02-26T01:44:56;-0.40;99.90
5675;DHT22;2860;54.284;10.158;2024-02-26T01:47:22;-0.40;99.90
5675;DHT22;2860;54.284;10.158;2024-02-26T01:49:48;-0.40;99.90
5675;DHT22;2860;54.284;10.158;2024-02-26T01:52:14;-0.40;99.90
5675;DHT22;2860;54.284;10.158;2024-02-26T01:54:40;-0.40;99.90
5675;DHT22;2860;54.284;10.158;2024-02-26T01:57:06;-0.40;99.90
5675;DHT22;2860;54.284;10.158;2024-02-26T01:59:34;-0.40;99.90
5675;DHT22;2860;54.284;10.158;2024-02-26T02:02:01;-0.40;99.90
5675;DHT22;2860;54.284;10.158;2024-02-26T02:04:28;-0.40;99.90
5675;DHT22;2860;54.284;10.158;2024-02-26T02:06:54;-0.40;99.90
5675;DHT22;2860;54.284;10.158;2024-02-26T02:09:20;-0.40;99.90
5675;DHT22;2860;54.284;10.158;2024-02-26T02:11:48;-0.40;99.90
5675;DHT22;2860;54.284;10.158;2024-02-26T02:14:14;-0.40;99.90
5675;DHT22;2860;54.284;10.158;2024-02-26T02:16:40;-0.40;99.90
5675;DHT22;2860;54.284;10.158;2024-02-26T02:19:05;-0.50;99.90
5675;DHT22;2860;54.284;10.158;2024-02-26T02:21:31;-0.60;99.90
5675;DHT22;2860;54.284;10.158;2024-02-26T02:23:56;-0.60;99.90
5675;DHT22;2860;54.284;10.158;2024-02-26T02:26:22;-0.60;99.90
5675;DHT22;2860;54.284;10.158;2024-02-26T02:28:48;-0.60;99.90
5675;DHT22;2860;54.284;10.158;2024-02-26T02:31:14;-0.70;99.90
5675;DHT22;2860;54.284;10.158;2024-02-26T02:33:40;-0.70;99.90
5675;DHT22;2860;54.284;10.158;2024-02-26T02:36:06;-0.70;99.90
5675;DHT22;2860;54.284;10.158;2024-02-26T02:38:37;-0.80;99.90
5675;DHT22;2860;54.284;10.158;2024-02-26T02:41:03;-0.70;99.90
5675;DHT22;2860;54.284;10.158;2024-02-26T02:43:29;-0.70;99.90
5675;DHT22;2860;54.284;10.158;2024-02-26T02:45:54;-0.70;99.90
5675;DHT22;2860;54.284;10.158;2024-02-26T02:48:20;-0.60;99.90
5675;DHT22;2860;54.284;10.158;2024-02-26T02:50:45;-0.60;99.90
5675;DHT22;2860;54.284;10.158;2024-02-26T02:53:11;-0.50;99.90
5675;DHT22;2860;54.284;10.158;2024-02-26T02:55:36;-0.50;99.90
5675;DHT22;2860;54.284;10.158;2024-02-26T02:58:02;-0.50;99.90
5675;DHT22;2860;54.284;10.158;2024-02-26T03:00:28;-0.50;99.90
5675;DHT22;2860;54.284;10.158;2024-02-26T03:02:53;-0.60;99.90
5675;DHT22;2860;54.284;10.158;2024-02-26T03:05:19;-0.50;99.90
5675;DHT22;2860;54.284;10.158;2024-02-26T03:07:44;-0.50;99.90
5675;DHT22;2860;54.284;10.158;2024-02-26T03:10:10;-0.50;99.90
5675;DHT22;2860;54.284;10.158;2024-02-26T03:12:35;-0.50;99.90
5675;DHT22;2860;54.284;10.158;2024-02-26T03:15:01;-0.60;99.90
5675;DHT22;2860;54.284;10.158;2024-02-26T03:17:28;-0.60;99.90
5675;DHT22;2860;54.284;10.158;2024-02-26T03:19:54;-0.60;99.90
5675;DHT22;2860;54.284;10.158;2024-02-26T03:22:20;-0.60;99.90
5675;DHT22;2860;54.284;10.158;2024-02-26T03:24:46;-0.60;99.90
5675;DHT22;2860;54.284;10.158;2024-02-26T03:27:12;-0.60;99.90
5675;DHT22;2860;54.284;10.158;2024-02-26T03:29:38;-0.50;99.90
5675;DHT22;2860;54.284;10.158;2024-02-26T03:32:04;-0.60;99.90
5675;DHT22;2860;54.284;10.158;2024-02-26T03:34:30;-0.60;99.90
5675;DHT22;2860;54.284;10.158;2024-02-26T03:36:56;-0.60;99.90
5675;DHT22;2860;54.284;10.158;2024-02-26T03:39:21;-0.60;99.90
5675;DHT22;2860;54.284;10.158;2024-02-26T03:41:48;-0.50;99.90
5675;DHT22;2860;54.284;10.158;2024-02-26T03:44:14;-0.60;99.90
5675;DHT22;2860;54.284;10.158;2024-02-26T03:46:39;-0.50;99.90
5675;DHT22;2860;54.284;10.158;2024-02-26T03:49:04;-0.60;99.90
5675;DHT22;2860;54.284;10.158;2024-02-26T03:51:30;-0.70;99.90
5675;DHT22;2860;54.284;10.158;2024-02-26T03:53:59;-0.70;99.90
5675;DHT22;2860;54.284;10.158;2024-02-26T03:56:25;-0.80;99.90
5675;DHT22;2860;54.284;10.158;2024-02-26T03:58:51;-0.80;99.90
5675;DHT22;2860;54.284;10.158;2024-02-26T04:01:16;-0.90;99.90
5675;DHT22;2860;54.284;10.158;2024-02-26T04:03:42;-0.90;99.90
5675;DHT22;2860;54.284;10.158;2024-02-26T04:06:11;-1.00;99.90
5675;DHT22;2860;54.284;10.158;2024-02-26T04:08:37;-1.00;99.90
5675;DHT22;2860;54.284;10.158;2024-02-26T04:11:03;-1.00;99.90
5675;DHT22;2860;54.284;10.158;2024-02-26T04:13:35;-1.00;99.90
5675;DHT22;2860;54.284;10.158;2024-02-26T04:16:06;-1.00;99.90
5675;DHT22;2860;54.284;10.158;2024-02-26T04:18:32;-1.10;99.90
5675;DHT22;2860;54.284;10.158;2024-02-26T04:20:58;-1.10;99.90
5675;DHT22;2860;54.284;10.158;2024-02-26T04:23:24;-1.00;99.90
5675;DHT22;2860;54.284;10.158;2024-02-26T04:25:50;-1.00;99.90
5675;DHT22;2860;54.284;10.158;2024-02-26T04:28:15;-1.00;99.90
5675;DHT22;2860;54.284;10.158;2024-02-26T04:30:41;-1.00;99.90
5675;DHT22;2860;54.284;10.158;2024-02-26T04:33:07;-1.00;99.90
5675;DHT22;2860;54.284;10.158;2024-02-26T04:35:32;-1.10;99.90
5675;DHT22;2860;54.284;10.158;2024-02-26T04:37:58;-1.10;99.90
5675;DHT22;2860;54.284;10.158;2024-02-26T04:40:23;-1.20;99.90
5675;DHT22;2860;54.284;10.158;2024-02-26T04:42:49;-1.20;99.90
5675;DHT22;2860;54.284;10.158;2024-02-26T04:45:15;-1.20;99.90
5675;DHT22;2860;54.284;10.158;2024-02-26T04:47:41;-1.20;99.90
5675;DHT22;2860;54.284;10.158;2024-02-26T04:50:06;-1.20;99.90
5675;DHT22;2860;54.284;10.158;2024-02-26T04:52:32;-1.10;99.90
5675;DHT22;2860;54.284;10.158;2024-02-26T04:54:57;-1.10;99.90
5675;DHT22;2860;54.284;10.158;2024-02-26T04:57:25;-1.10;99.90
5675;DHT22;2860;54.284;10.158;2024-02-26T04:59:51;-1.20;99.90
5675;DHT22;2860;54.284;10.158;2024-02-26T05:02:17;-1.20;99.90
5675;DHT22;2860;54.284;10.158;2024-02-26T05:04:43;-1.20;99.90
5675;DHT22;2860;54.284;10.158;2024-02-26T05:07:08;-1.30;99.90
5675;DHT22;2860;54.284;10.158;2024-02-26T05:09:34;-1.40;99.90
5675;DHT22;2860;54.284;10.158;2024-02-26T05:12:00;-1.40;99.90
5675;DHT22;2860;54.284;10.158;2024-02-26T05:14:26;-1.40;99.90
5675;DHT22;2860;54.284;10.158;2024-02-26T05:16:51;-1.40;99.90
5675;DHT22;2860;54.284;10.158;2024-02-26T05:19:17;-1.40;99.90
5675;DHT22;2860;54.284;10.158;2024-02-26T05:21:42;-1.40;99.90
5675;DHT22;2860;54.284;10.158;2024-02-26T05:24:09;-1.40;99.90
5675;DHT22;2860;54.284;10.158;2024-02-26T05:26:35;-1.40;99.90
5675;DHT22;2860;54.284;10.158;2024-02-26T05:29:01;-1.40;99.90
5675;DHT22;2860;54.284;10.158;2024-02-26T05:31:28;-1.40;99.90
5675;DHT22;2860;54.284;10.158;2024-02-26T05:33:54;-1.40;99.90
5675;DHT22;2860;54.284;10.158;2024-02-26T05:36:20;-1.40;99.90
5675;DHT22;2860;54.284;10.158;2024-02-26T05:38:47;-1.40;99.90
5675;DHT22;2860;54.284;10.158;2024-02-26T05:41:17;-1.40;99.90
5675;DHT22;2860;54.284;10.158;2024-02-26T05:43:48;-1.40;99.90
5675;DHT22;2860;54.284;10.158;2024-02-26T05:46:16;-1.40;99.90
5675;DHT22;2860;54.284;10.158;2024-02-26T05:48:42;-1.40;99.90
5675;DHT22;2860;54.284;10.158;2024-02-26T05:51:07;-1.40;99.90
5675;DHT22;2860;54.284;10.158;2024-02-26T05:53:33;-1.40;99.90
5675;DHT22;2860;54.284;10.158;2024-02-26T05:55:59;-1.50;99.90
5675;DHT22;2860;54.284;10.158;2024-02-26T05:58:24;-1.50;99.90
5675;DHT22;2860;54.284;10.158;2024-02-26T06:00:50;-1.50;99.90
5675;DHT22;2860;54.284;10.158;2024-02-26T06:03:15;-1.50;99.90
5675;DHT22;2860;54.284;10.158;2024-02-26T06:05:42;-1.50;99.90
5675;DHT22;2860;54.284;10.158;2024-02-26T06:08:07;-1.50;99.90
5675;DHT22;2860;54.284;10.158;2024-02-26T06:10:33;-1.50;99.90
5675;DHT22;2860;54.284;10.158;2024-02-26T06:12:58;-1.50;99.90
5675;DHT22;2860;54.284;10.158;2024-02-26T06:15:24;-1.50;99.90
5675;DHT22;2860;54.284;10.158;2024-02-26T06:17:49;-1.50;99.90
5675;DHT22;2860;54.284;10.158;2024-02-26T06:20:15;-1.40;99.90
5675;DHT22;2860;54.284;10.158;2024-02-26T06:22:41;-1.40;99.90
5675;DHT22;2860;54.284;10.158;2024-02-26T06:25:07;-1.40;99.90
5675;DHT22;2860;54.284;10.158;2024-02-26T06:27:33;-1.40;99.90
5675;DHT22;2860;54.284;10.158;2024-02-26T06:29:58;-1.50;99.90
5675;DHT22;2860;54.284;10.158;2024-02-26T06:32:24;-1.50;99.90
5675;DHT22;2860;54.284;10.158;2024-02-26T06:34:49;-1.50;99.90
5675;DHT22;2860;54.284;10.158;2024-02-26T06:37:15;-1.50;99.90
5675;DHT22;2860;54.284;10.158;2024-02-26T06:39:40;-1.40;99.90
5675;DHT22;2860;54.284;10.158;2024-02-26T06:42:06;-1.40;99.90
5675;DHT22;2860;54.284;10.158;2024-02-26T06:44:32;-1.40;99.90
5675;DHT22;2860;54.284;10.158;2024-02-26T06:47:00;-1.40;99.90
5675;DHT22;2860;54.284;10.158;2024-02-26T06:49:26;-1.40;99.90
5675;DHT22;2860;54.284;10.158;2024-02-26T06:51:52;-1.30;99.90
5675;DHT22;2860;54.284;10.158;2024-02-26T06:54:18;-1.30;99.90
5675;DHT22;2860;54.284;10.158;2024-02-26T06:56:43;-1.30;99.90
5675;DHT22;2860;54.284;10.158;2024-02-26T06:59:09;-1.30;99.90
5675;DHT22;2860;54.284;10.158;2024-02-26T07:01:34;-1.20;99.90
5675;DHT22;2860;54.284;10.158;2024-02-26T07:04:00;-1.10;99.90
5675;DHT22;2860;54.284;10.158;2024-02-26T07:06:27;-1.00;99.90
5675;DHT22;2860;54.284;10.158;2024-02-26T07:08:52;-0.90;99.90
5675;DHT22;2860;54.284;10.158;2024-02-26T07:11:17;-0.80;99.90
5675;DHT22;2860;54.284;10.158;2024-02-26T07:13:45;-0.80;99.90
5675;DHT22;2860;54.284;10.158;2024-02-26T07:16:11;-0.70;99.90
5675;DHT22;2860;54.284;10.158;2024-02-26T07:18:36;-0.50;99.90
5675;DHT22;2860;54.284;10.158;2024-02-26T07:21:02;-0.40;99.90
5675;DHT22;2860;54.284;10.158;2024-02-26T07:23:29;-0.20;99.90
5675;DHT22;2860;54.284;10.158;2024-02-26T07:25:54;0.00;99.90
5675;DHT22;2860;54.284;10.158;2024-02-26T07:28:20;0.10;99.90
5675;DHT22;2860;54.284;10.158;2024-02-26T07:30:45;0.30;99.90
5675;DHT22;2860;54.284;10.158;2024-02-26T07:33:11;0.30;99.90
5675;DHT22;2860;54.284;10.158;2024-02-26T07:35:36;0.50;99.90
5675;DHT22;2860;54.284;10.158;2024-02-26T07:38:04;0.50;99.90
5675;DHT22;2860;54.284;10.158;2024-02-26T07:40:30;0.60;99.90
5675;DHT22;2860;54.284;10.158;2024-02-26T07:42:55;0.60;99.90
5675;DHT22;2860;54.284;10.158;2024-02-26T07:45:21;0.80;99.90
5675;DHT22;2860;54.284;10.158;2024-02-26T07:47:47;0.80;99.90
5675;DHT22;2860;54.284;10.158;2024-02-26T07:50:12;0.90;99.90
5675;DHT22;2860;54.284;10.158;2024-02-26T07:52:39;0.90;99.90
5675;DHT22;2860;54.284;10.158;2024-02-26T07:55:05;0.90;99.90
5675;DHT22;2860;54.284;10.158;2024-02-26T07:57:32;1.00;99.90
5675;DHT22;2860;54.284;10.158;2024-02-26T07:59:59;1.00;99.90
5675;DHT22;2860;54.284;10.158;2024-02-26T08:02:24;1.00;99.90
5675;DHT22;2860;54.284;10.158;2024-02-26T08:04:50;1.10;99.90
5675;DHT22;2860;54.284;10.158;2024-02-26T08:07:15;1.00;99.90
5675;DHT22;2860;54.284;10.158;2024-02-26T08:09:41;1.10;99.90
5675;DHT22;2860;54.284;10.158;2024-02-26T08:12:07;1.10;99.90
5675;DHT22;2860;54.284;10.158;2024-02-26T08:14:32;1.10;99.90
5675;DHT22;2860;54.284;10.158;2024-02-26T08:16:58;1.10;99.90
5675;DHT22;2860;54.284;10.158;2024-02-26T08:19:24;1.10;99.90
5675;DHT22;2860;54.284;10.158;2024-02-26T08:21:50;1.10;99.90
5675;DHT22;2860;54.284;10.158;2024-02-26T08:24:15;1.10;99.90
5675;DHT22;2860;54.284;10.158;2024-02-26T08:26:41;1.10;99.90
5675;DHT22;2860;54.284;10.158;2024-02-26T08:29:06;1.10;99.90
5675;DHT22;2860;54.284;10.158;2024-02-26T08:31:32;1.20;99.90
5675;DHT22;2860;54.284;10.158;2024-02-26T08:33:57;1.30;99.90
5675;DHT22;2860;54.284;10.158;2024-02-26T08:36:24;1.30;99.90
5675;DHT22;2860;54.284;10.158;2024-02-26T08:38:49;1.40;99.90
5675;DHT22;2860;54.284;10.158;2024-02-26T08:41:15;1.40;99.90
5675;DHT22;2860;54.284;10.158;2024-02-26T08:43:40;1.50;99.90
5675;DHT22;2860;54.284;10.158;2024-02-26T08:46:09;1.60;99.90
5675;DHT22;2860;54.284;10.158;2024-02-26T08:48:35;1.60;99.90
5675;DHT22;2860;54.284;10.158;2024-02-26T08:51:05;1.60;99.90
5675;DHT22;2860;54.284;10.158;2024-02-26T08:53:32;1.60;99.90
5675;DHT22;2860;54.284;10.158;2024-02-26T08:55:57;1.60;99.90
5675;DHT22;2860;54.284;10.158;2024-02-26T08:58:23;1.70;99.90
5675;DHT22;2860;54.284;10.158;2024-02-26T09:00:48;1.80;99.90
5675;DHT22;2860;54.284;10.158;2024-02-26T09:03:14;1.90;99.90
5675;DHT22;2860;54.284;10.158;2024-02-26T09:05:39;1.90;99.90
5675;DHT22;2860;54.284;10.158;2024-02-26T09:08:05;2.00;99.90
5675;DHT22;2860;54.284;10.158;2024-02-26T09:10:31;2.10;99.90
5675;DHT22;2860;54.284;10.158;2024-02-26T09:12:58;2.20;99.90
5675;DHT22;2860;54.284;10.158;2024-02-26T09:15:23;2.30;99.90
5675;DHT22;2860;54.284;10.158;2024-02-26T09:17:49;2.40;99.90
5675;DHT22;2860;54.284;10.158;2024-02-26T09:20:15;2.40;99.90
5675;DHT22;2860;54.284;10.158;2024-02-26T09:22:45;2.40;99.90
5675;DHT22;2860;54.284;10.158;2024-02-26T09:25:11;2.40;99.90
5675;DHT22;2860;54.284;10.158;2024-02-26T09:27:36;2.40;99.90
5675;DHT22;2860;54.284;10.158;2024-02-26T09:30:02;2.50;99.90
5675;DHT22;2860;54.284;10.158;2024-02-26T09:32:28;2.60;99.90
5675;DHT22;2860;54.284;10.158;2024-02-26T09:34:53;2.70;99.90
5675;DHT22;2860;54.284;10.158;2024-02-26T09:37:19;2.80;99.90
5675;DHT22;2860;54.284;10.158;2024-02-26T09:39:44;2.90;99.90
5675;DHT22;2860;54.284;10.158;2024-02-26T09:42:12;3.00;99.90
5675;DHT22;2860;54.284;10.158;2024-02-26T09:44:40;3.00;99.90
5675;DHT22;2860;54.284;10.158;2024-02-26T09:47:09;3.10;99.90
5675;DHT22;2860;54.284;10.158;2024-02-26T09:49:36;3.20;99.90
5675;DHT22;2860;54.284;10.158;2024-02-26T09:52:04;3.20;99.90
5675;DHT22;2860;54.284;10.158;2024-02-26T09:54:30;3.30;99.90
5675;DHT22;2860;54.284;10.158;2024-02-26T09:56:59;3.30;99.90
5675;DHT22;2860;54.284;10.158;2024-02-26T09:59:27;3.20;99.90
5675;DHT22;2860;54.284;10.158;2024-02-26T10:01:54;3.10;99.90
5675;DHT22;2860;54.284;10.158;2024-02-26T10:04:20;3.10;99.90
5675;DHT22;2860;54.284;10.158;2024-02-26T10:06:46;3.00;99.90
5675;DHT22;2860;54.284;10.158;2024-02-26T10:09:12;3.00;99.90
5675;DHT22;2860;54.284;10.158;2024-02-26T10:11:41;3.00;99.90
5675;DHT22;2860;54.284;10.158;2024-02-26T10:14:08;3.00;99.90
5675;DHT22;2860;54.284;10.158;2024-02-26T10:16:34;3.00;99.90
5675;DHT22;2860;54.284;10.158;2024-02-26T10:19:00;3.10;99.90
5675;DHT22;2860;54.284;10.158;2024-02-26T10:21:26;3.20;99.90
5675;DHT22;2860;54.284;10.158;2024-02-26T10:23:52;3.20;99.90
5675;DHT22;2860;54.284;10.158;2024-02-26T10:26:17;3.30;99.90
5675;DHT22;2860;54.284;10.158;2024-02-26T10:28:44;3.30;99.90
5675;DHT22;2860;54.284;10.158;2024-02-26T10:31:11;3.30;99.90
5675;DHT22;2860;54.284;10.158;2024-02-26T10:33:38;3.30;99.90
5675;DHT22;2860;54.284;10.158;2024-02-26T10:36:07;3.30;99.90
5675;DHT22;2860;54.284;10.158;2024-02-26T10:38:36;3.30;99.90
5675;DHT22;2860;54.284;10.158;2024-02-26T10:41:13;3.40;99.90
5675;DHT22;2860;54.284;10.158;2024-02-26T10:43:39;3.50;99.90
5675;DHT22;2860;54.284;10.158;2024-02-26T10:46:05;3.50;99.90
5675;DHT22;2860;54.284;10.158;2024-02-26T10:48:32;3.50;99.90
5675;DHT22;2860;54.284;10.158;2024-02-26T10:50:58;3.60;99.90
5675;DHT22;2860;54.284;10.158;2024-02-26T10:53:26;3.50;99.90
5675;DHT22;2860;54.284;10.158;2024-02-26T10:56:04;3.60;99.90
5675;DHT22;2860;54.284;10.158;2024-02-26T10:58:33;3.60;99.90
5675;DHT22;2860;54.284;10.158;2024-02-26T11:01:00;3.60;99.90
5675;DHT22;2860;54.284;10.158;2024-02-26T11:03:26;3.50;99.90
5675;DHT22;2860;54.284;10.158;2024-02-26T11:05:54;3.60;99.90
5675;DHT22;2860;54.284;10.158;2024-02-26T11:08:21;3.60;99.90
5675;DHT22;2860;54.284;10.158;2024-02-26T11:10:48;3.80;99.90
5675;DHT22;2860;54.284;10.158;2024-02-26T11:13:15;3.80;99.90
5675;DHT22;2860;54.284;10.158;2024-02-26T11:15:46;3.80;99.90
5675;DHT22;2860;54.284;10.158;2024-02-26T11:18:14;3.90;99.90
5675;DHT22;2860;54.284;10.158;2024-02-26T11:20:41;3.80;99.90
5675;DHT22;2860;54.284;10.158;2024-02-26T11:23:07;3.80;99.90
5675;DHT22;2860;54.284;10.158;2024-02-26T11:25:37;3.80;99.90
5675;DHT22;2860;54.284;10.158;2024-02-26T11:28:09;3.80;99.90
5675;DHT22;2860;54.284;10.158;2024-02-26T11:30:38;3.80;99.90
5675;DHT22;2860;54.284;10.158;2024-02-26T11:33:08;3.90;99.90
5675;DHT22;2860;54.284;10.158;2024-02-26T11:35:36;4.00;99.90
5675;DHT22;2860;54.284;10.158;2024-02-26T11:38:01;4.20;99.90
5675;DHT22;2860;54.284;10.158;2024-02-26T11:40:27;4.30;99.90
5675;DHT22;2860;54.284;10.158;2024-02-26T11:42:54;4.40;99.90
5675;DHT22;2860;54.284;10.158;2024-02-26T11:48:12;4.50;99.90
5675;DHT22;2860;54.284;10.158;2024-02-26T11:50:49;4.60;99.90
5675;DHT22;2860;54.284;10.158;2024-02-26T11:55:47;4.80;99.90
5675;DHT22;2860;54.284;10.158;2024-02-26T11:58:14;4.90;99.90
5675;DHT22;2860;54.284;10.158;2024-02-26T12:00:42;5.00;99.90
5675;DHT22;2860;54.284;10.158;2024-02-26T12:03:08;5.00;99.90
5675;DHT22;2860;54.284;10.158;2024-02-26T12:05:36;5.10;99.90
5675;DHT22;2860;54.284;10.158;2024-02-26T12:08:04;5.20;99.90
5675;DHT22;2860;54.284;10.158;2024-02-26T12:10:33;5.40;99.90
5675;DHT22;2860;54.284;10.158;2024-02-26T12:13:13;5.50;99.90
5675;DHT22;2860;54.284;10.158;2024-02-26T12:15:55;5.80;99.90
5675;DHT22;2860;54.284;10.158;2024-02-26T12:18:22;5.90;99.90
5675;DHT22;2860;54.284;10.158;2024-02-26T12:21:01;6.00;99.90
5675;DHT22;2860;54.284;10.158;2024-02-26T12:23:26;6.10;99.90
5675;DHT22;2860;54.284;10.158;2024-02-26T12:25:54;6.10;99.90
5675;DHT22;2860;54.284;10.158;2024-02-26T12:28:19;6.20;99.90
5675;DHT22;2860;54.284;10.158;2024-02-26T12:30:45;6.20;99.90
5675;DHT22;2860;54.284;10.158;2024-02-26T12:33:11;6.20;99.90
5675;DHT22;2860;54.284;10.158;2024-02-26T12:35:36;6.20;99.90
5675;DHT22;2860;54.284;10.158;2024-02-26T12:38:03;6.00;99.90
5675;DHT22;2860;54.284;10.158;2024-02-26T12:40:29;6.00;99.90
5675;DHT22;2860;54.284;10.158;2024-02-26T12:42:55;6.00;99.90
5675;DHT22;2860;54.284;10.158;2024-02-26T12:45:21;6.10;99.90
5675;DHT22;2860;54.284;10.158;2024-02-26T12:47:46;6.20;99.90
5675;DHT22;2860;54.284;10.158;2024-02-26T12:50:13;6.20;99.90
5675;DHT22;2860;54.284;10.158;2024-02-26T12:52:42;6.10;99.90
5675;DHT22;2860;54.284;10.158;2024-02-26T12:55:08;6.00;99.90
5675;DHT22;2860;54.284;10.158;2024-02-26T12:57:37;6.00;99.90
5675;DHT22;2860;54.284;10.158;2024-02-26T13:00:05;6.00;99.90
5675;DHT22;2860;54.284;10.158;2024-02-26T13:02:32;5.90;99.90
5675;DHT22;2860;54.284;10.158;2024-02-26T13:04:59;5.80;99.90
5675;DHT22;2860;54.284;10.158;2024-02-26T13:07:27;5.90;99.90
5675;DHT22;2860;54.284;10.158;2024-02-26T13:09:52;5.90;99.90
5675;DHT22;2860;54.284;10.158;2024-02-26T13:12:18;5.90;99.90
5675;DHT22;2860;54.284;10.158;2024-02-26T13:14:44;5.90;99.90
5675;DHT22;2860;54.284;10.158;2024-02-26T13:17:10;5.80;99.90
5675;DHT22;2860;54.284;10.158;2024-02-26T13:19:35;5.80;99.90
5675;DHT22;2860;54.284;10.158;2024-02-26T13:22:05;5.80;99.90
5675;DHT22;2860;54.284;10.158;2024-02-26T13:24:32;5.70;99.90
5675;DHT22;2860;54.284;10.158;2024-02-26T13:26:57;5.60;99.90
5675;DHT22;2860;54.284;10.158;2024-02-26T13:29:23;5.50;99.90
5675;DHT22;2860;54.284;10.158;2024-02-26T13:31:57;5.50;99.90
5675;DHT22;2860;54.284;10.158;2024-02-26T13:34:27;5.40;99.90
5675;DHT22;2860;54.284;10.158;2024-02-26T13:36:53;5.50;99.90
5675;DHT22;2860;54.284;10.158;2024-02-26T13:39:24;5.60;99.90
5675;DHT22;2860;54.284;10.158;2024-02-26T13:41:50;5.60;99.90
5675;DHT22;2860;54.284;10.158;2024-02-26T13:44:16;5.60;99.90
5675;DHT22;2860;54.284;10.158;2024-02-26T13:46:42;5.60;99.90
5675;DHT22;2860;54.284;10.158;2024-02-26T13:49:09;5.60;99.90
5675;DHT22;2860;54.284;10.158;2024-02-26T13:51:35;5.70;99.90
5675;DHT22;2860;54.284;10.158;2024-02-26T13:54:01;5.70;99.90
5675;DHT22;2860;54.284;10.158;2024-02-26T13:56:27;5.70;99.90
5675;DHT22;2860;54.284;10.158;2024-02-26T13:58:53;5.70;99.90
5675;DHT22;2860;54.284;10.158;2024-02-26T14:01:18;5.70;99.90
5675;DHT22;2860;54.284;10.158;2024-02-26T14:03:44;5.60;99.90
5675;DHT22;2860;54.284;10.158;2024-02-26T14:06:10;5.60;99.90
5675;DHT22;2860;54.284;10.158;2024-02-26T14:08:35;5.60;99.90
5675;DHT22;2860;54.284;10.158;2024-02-26T14:11:01;5.50;99.90
5675;DHT22;2860;54.284;10.158;2024-02-26T14:13:27;5.50;99.90
5675;DHT22;2860;54.284;10.158;2024-02-26T14:15:52;5.60;99.90
5675;DHT22;2860;54.284;10.158;2024-02-26T14:18:18;5.60;99.90
5675;DHT22;2860;54.284;10.158;2024-02-26T14:20:43;5.60;99.90
5675;DHT22;2860;54.284;10.158;2024-02-26T14:23:10;5.60;99.90
5675;DHT22;2860;54.284;10.158;2024-02-26T14:25:35;5.60;99.90
5675;DHT22;2860;54.284;10.158;2024-02-26T14:28:02;5.70;99.90
5675;DHT22;2860;54.284;10.158;2024-02-26T14:30:27;5.70;99.90
5675;DHT22;2860;54.284;10.158;2024-02-26T14:32:53;5.80;99.90
5675;DHT22;2860;54.284;10.158;2024-02-26T14:35:18;5.70;99.90
5675;DHT22;2860;54.284;10.158;2024-02-26T14:37:44;5.60;99.90
5675;DHT22;2860;54.284;10.158;2024-02-26T14:40:11;5.60;99.90
5675;DHT22;2860;54.284;10.158;2024-02-26T14:42:37;5.50;99.90
5675;DHT22;2860;54.284;10.158;2024-02-26T14:45:03;5.60;99.90
5675;DHT22;2860;54.284;10.158;2024-02-26T14:47:32;5.50;99.90
5675;DHT22;2860;54.284;10.158;2024-02-26T14:49:57;5.50;99.90
5675;DHT22;2860;54.284;10.158;2024-02-26T14:52:23;5.50;99.90
5675;DHT22;2860;54.284;10.158;2024-02-26T14:54:48;5.50;99.90
5675;DHT22;2860;54.284;10.158;2024-02-26T14:57:16;5.40;99.90
5675;DHT22;2860;54.284;10.158;2024-02-26T14:59:42;5.30;99.90
5675;DHT22;2860;54.284;10.158;2024-02-26T15:02:09;5.30;99.90
5675;DHT22;2860;54.284;10.158;2024-02-26T15:04:35;5.20;99.90
5675;DHT22;2860;54.284;10.158;2024-02-26T15:07:01;5.10;99.90
5675;DHT22;2860;54.284;10.158;2024-02-26T15:09:26;5.00;99.90
5675;DHT22;2860;54.284;10.158;2024-02-26T15:11:52;5.00;99.90
5675;DHT22;2860;54.284;10.158;2024-02-26T15:14:17;5.00;99.90
5675;DHT22;2860;54.284;10.158;2024-02-26T15:16:43;4.90;99.90
5675;DHT22;2860;54.284;10.158;2024-02-26T15:19:09;4.90;99.90
5675;DHT22;2860;54.284;10.158;2024-02-26T15:21:34;4.90;99.90
5675;DHT22;2860;54.284;10.158;2024-02-26T15:24:00;4.80;99.90
5675;DHT22;2860;54.284;10.158;2024-02-26T15:26:25;4.80;99.90
5675;DHT22;2860;54.284;10.158;2024-02-26T15:28:52;4.80;99.90
5675;DHT22;2860;54.284;10.158;2024-02-26T15:31:19;4.70;99.90
5675;DHT22;2860;54.284;10.158;2024-02-26T15:33:44;4.70;99.90
5675;DHT22;2860;54.284;10.158;2024-02-26T15:36:10;4.70;99.90
5675;DHT22;2860;54.284;10.158;2024-02-26T15:38:36;4.70;99.90
5675;DHT22;2860;54.284;10.158;2024-02-26T15:41:02;4.70;99.90
5675;DHT22;2860;54.284;10.158;2024-02-26T15:43:27;4.70;99.90
5675;DHT22;2860;54.284;10.158;2024-02-26T15:45:53;4.70;99.90
5675;DHT22;2860;54.284;10.158;2024-02-26T15:48:18;4.70;99.90
5675;DHT22;2860;54.284;10.158;2024-02-26T15:50:44;4.60;99.90
5675;DHT22;2860;54.284;10.158;2024-02-26T15:53:09;4.60;99.90